createdAt,value
2017-06-09T00:00:36.955Z,67.90
2017-06-09T00:03:06.710Z,67.70
2017-06-09T00:05:36.467Z,68.80
2017-06-09T00:08:07.922Z,68.20
2017-06-09T00:10:37.637Z,68.50
2017-06-09T00:13:07.421Z,68.80
2017-06-09T00:15:37.159Z,66.30
2017-06-09T00:18:07.522Z,65.60
2017-06-09T00:20:37.298Z,64.90
2017-06-09T00:23:07.672Z,63.90
2017-06-09T00:25:37.876Z,63.00
2017-06-09T00:28:07.563Z,63.40
2017-06-09T00:30:37.261Z,62.30
2017-06-09T00:33:06.950Z,61.20
2017-06-09T00:35:36.701Z,60.40
2017-06-09T00:38:06.394Z,59.50
2017-06-09T00:40:36.155Z,58.70
2017-06-09T00:43:05.883Z,58.30
2017-06-09T00:45:35.593Z,58.50
2017-06-09T00:48:05.263Z,57.90
2017-06-09T00:50:34.975Z,57.90
2017-06-09T00:53:04.713Z,57.40
2017-06-09T00:55:34.414Z,57.40
2017-06-09T00:58:04.146Z,57.00
2017-06-09T01:00:33.833Z,57.00
2017-06-09T01:03:03.550Z,56.80
2017-06-09T01:05:33.241Z,57.20
2017-06-09T01:08:02.925Z,56.90
2017-06-09T01:10:32.642Z,56.80
2017-06-09T01:13:02.367Z,56.90
2017-06-09T01:15:32.037Z,56.60
2017-06-09T01:18:01.702Z,56.50
2017-06-09T01:20:31.365Z,56.40
2017-06-09T01:23:01.122Z,56.40
2017-06-09T01:25:30.814Z,56.20
2017-06-09T01:28:00.538Z,56.00
2017-06-09T01:30:30.502Z,56.00
2017-06-09T01:33:00.262Z,55.50
2017-06-09T01:35:29.994Z,55.30
2017-06-09T01:37:59.738Z,55.20
2017-06-09T01:40:29.449Z,55.00
2017-06-09T01:42:59.768Z,54.90
2017-06-09T01:45:29.480Z,55.00
2017-06-09T01:47:59.234Z,54.70
2017-06-09T01:50:28.938Z,54.60
2017-06-09T01:52:59.189Z,54.70
2017-06-09T01:55:29.971Z,54.40
2017-06-09T01:57:59.716Z,54.70
2017-06-09T02:00:29.549Z,55.20
2017-06-09T02:02:59.375Z,54.30
2017-06-09T02:05:29.102Z,54.70
2017-06-09T02:07:58.807Z,54.40
2017-06-09T02:10:28.498Z,55.50
2017-06-09T02:12:58.201Z,57.20
2017-06-09T02:15:27.894Z,56.70
2017-06-09T02:17:58.246Z,56.60
2017-06-09T02:20:27.934Z,56.30
2017-06-09T02:22:57.674Z,56.30
2017-06-09T02:25:27.358Z,55.20
2017-06-09T02:27:58.143Z,55.60
2017-06-09T02:30:27.842Z,55.40
2017-06-09T02:32:59.081Z,55.50
2017-06-09T02:35:29.327Z,56.20
2017-06-09T02:37:59.041Z,57.20
2017-06-09T02:40:28.714Z,57.10
2017-06-09T02:42:58.434Z,57.70
2017-06-09T02:45:28.113Z,56.20
2017-06-09T02:47:58.630Z,56.20
2017-06-09T02:50:28.323Z,55.90
2017-06-09T02:52:58.135Z,55.50
2017-06-09T02:55:27.801Z,55.10
2017-06-09T02:57:57.477Z,54.50
2017-06-09T03:00:27.162Z,54.60
2017-06-09T03:02:56.934Z,55.00
2017-06-09T03:05:26.636Z,55.20
2017-06-09T03:07:56.480Z,55.10
2017-06-09T03:10:26.166Z,56.50
2017-06-09T03:12:57.001Z,55.50
2017-06-09T03:15:26.916Z,56.20
2017-06-09T03:17:57.033Z,57.00
2017-06-09T03:20:26.945Z,57.90
2017-06-09T03:22:56.718Z,57.80
2017-06-09T03:25:27.798Z,58.40
2017-06-09T03:27:57.873Z,57.70
2017-06-09T03:30:27.557Z,57.50
2017-06-09T03:33:01.461Z,57.20
2017-06-09T03:35:31.147Z,57.80
2017-06-09T03:38:00.880Z,56.20
2017-06-09T03:40:30.550Z,55.90
2017-06-09T03:43:00.276Z,58.20
2017-06-09T03:45:29.951Z,58.10
2017-06-09T03:47:59.649Z,56.40
2017-06-09T03:50:29.342Z,55.90
2017-06-09T03:52:59.027Z,53.90
2017-06-09T03:55:29.315Z,56.40
2017-06-09T03:57:59.021Z,55.60
2017-06-09T04:00:28.738Z,56.20
2017-06-09T04:02:58.461Z,56.70
2017-06-09T04:05:28.159Z,56.10
2017-06-09T04:07:57.870Z,57.40
2017-06-09T04:10:28.520Z,58.30
2017-06-09T04:12:58.485Z,58.20
2017-06-09T04:15:29.168Z,56.10
2017-06-09T04:17:59.333Z,58.20
2017-06-09T04:20:29.042Z,55.90
2017-06-09T04:22:58.762Z,58.20
2017-06-09T04:25:28.422Z,58.20
2017-06-09T04:27:58.132Z,54.90
2017-06-09T04:30:28.770Z,58.20
2017-06-09T04:32:58.484Z,58.40
2017-06-09T04:35:28.161Z,58.40
2017-06-09T04:37:57.857Z,56.80
2017-06-09T04:40:27.542Z,58.50
2017-06-09T04:42:57.401Z,58.40
2017-06-09T04:45:31.762Z,58.50
2017-06-09T04:48:01.510Z,58.40
2017-06-09T04:50:31.217Z,58.50
2017-06-09T04:53:01.853Z,56.50
2017-06-09T04:55:31.679Z,58.70
2017-06-09T04:58:01.897Z,58.70
2017-06-09T05:00:31.691Z,58.90
2017-06-09T05:03:01.426Z,55.40
2017-06-09T05:05:31.121Z,52.60
2017-06-09T05:08:02.302Z,56.80
2017-06-09T05:10:32.666Z,49.90
2017-06-09T05:13:02.832Z,48.70
2017-06-09T05:15:32.557Z,47.70
2017-06-09T05:18:02.252Z,46.40
2017-06-09T05:20:33.264Z,46.00
2017-06-09T05:23:07.418Z,45.90
2017-06-09T05:25:37.536Z,45.70
2017-06-09T05:28:11.481Z,45.20
2017-06-09T05:30:46.059Z,45.20
2017-06-09T05:33:15.959Z,44.70
2017-06-09T05:35:45.658Z,44.80
2017-06-09T05:38:15.551Z,45.00
2017-06-09T05:40:45.421Z,45.10
2017-06-09T05:43:15.312Z,45.30
2017-06-09T05:45:46.796Z,44.20
2017-06-09T05:48:16.747Z,44.20
2017-06-09T05:50:46.749Z,45.20
2017-06-09T05:53:16.577Z,44.30
2017-06-09T05:55:46.439Z,44.20
2017-06-09T05:58:16.150Z,43.90
2017-06-09T06:00:46.582Z,43.50
2017-06-09T06:03:16.298Z,43.90
2017-06-09T06:05:46.004Z,42.70
2017-06-09T06:08:15.671Z,42.60
2017-06-09T06:10:45.339Z,43.30
2017-06-09T06:13:15.044Z,42.50
2017-06-09T06:15:44.735Z,42.50
2017-06-09T06:18:14.493Z,43.70
2017-06-09T06:20:44.190Z,44.00
2017-06-09T06:23:13.922Z,43.70
2017-06-09T06:25:44.650Z,42.80
2017-06-09T06:28:14.763Z,42.20
2017-06-09T06:30:44.613Z,42.90
2017-06-09T06:33:14.321Z,43.60
2017-06-09T06:35:44.010Z,44.30
2017-06-09T06:38:13.726Z,42.50
2017-06-09T06:40:43.542Z,42.80
2017-06-09T06:43:13.641Z,41.10
2017-06-09T06:45:43.511Z,42.80
2017-06-09T06:48:13.389Z,41.50
2017-06-09T06:50:43.232Z,39.50
2017-06-09T06:53:13.002Z,40.30
2017-06-09T06:55:42.714Z,40.70
2017-06-09T06:58:12.462Z,40.40
2017-06-09T07:00:42.169Z,41.00
2017-06-09T07:03:11.944Z,40.50
2017-06-09T07:05:41.705Z,40.10
2017-06-09T07:08:16.702Z,41.00
2017-06-09T07:10:47.360Z,40.80
2017-06-09T07:13:17.461Z,40.50
2017-06-09T07:15:53.061Z,41.60
2017-06-09T07:18:22.956Z,42.30
2017-06-09T07:20:52.732Z,41.70
2017-06-09T07:23:22.479Z,42.20
2017-06-09T07:25:52.202Z,42.20
2017-06-09T07:28:21.962Z,42.10
2017-06-09T07:30:51.798Z,42.20
2017-06-09T07:33:24.235Z,43.30
2017-06-09T07:35:55.327Z,43.80
2017-06-09T07:38:25.462Z,43.50
2017-06-09T07:40:55.793Z,43.50
2017-06-09T07:43:30.264Z,44.50
2017-06-09T07:46:00.110Z,43.90
2017-06-09T07:48:30.038Z,45.30
2017-06-09T07:51:00.566Z,45.70
2017-06-09T07:53:30.532Z,46.10
2017-06-09T07:56:00.299Z,47.00
2017-06-09T07:58:30.027Z,47.20
2017-06-09T08:00:59.768Z,47.50
2017-06-09T08:03:36.473Z,47.70
2017-06-09T08:06:06.362Z,48.00
2017-06-09T08:08:36.351Z,48.20
2017-06-09T08:11:06.121Z,48.50
2017-06-09T08:13:35.827Z,47.40
2017-06-09T08:16:05.613Z,48.70
2017-06-09T08:18:35.433Z,49.30
2017-06-09T08:21:05.109Z,49.20
2017-06-09T08:23:37.908Z,50.80
2017-06-09T08:26:07.600Z,50.50
2017-06-09T08:28:37.405Z,51.80
2017-06-09T08:31:07.134Z,51.80
2017-06-09T08:33:36.810Z,51.70
2017-06-09T08:36:07.559Z,52.20
2017-06-09T08:38:37.510Z,52.60
2017-06-09T08:41:07.242Z,53.70
2017-06-09T08:43:37.206Z,53.00
2017-06-09T08:46:06.902Z,52.90
2017-06-09T08:48:36.693Z,52.20
2017-06-09T08:51:09.967Z,52.50
2017-06-09T08:53:40.602Z,52.10
2017-06-09T08:56:10.377Z,52.70
2017-06-09T08:58:40.053Z,52.10
2017-06-09T09:01:09.783Z,52.10
2017-06-09T09:03:39.606Z,52.90
2017-06-09T09:06:09.308Z,53.20
2017-06-09T09:08:39.025Z,54.10
2017-06-09T09:11:08.692Z,55.70
2017-06-09T09:13:38.898Z,58.10
2017-06-09T09:16:08.649Z,61.20
2017-06-09T09:18:38.372Z,60.30
2017-06-09T09:21:08.105Z,63.40
2017-06-09T09:23:38.113Z,64.20
2017-06-09T09:26:08.045Z,68.00
2017-06-09T09:28:39.491Z,69.10
2017-06-09T09:31:10.233Z,69.00
2017-06-09T09:33:40.358Z,71.20
2017-06-09T09:36:10.106Z,70.50
2017-06-09T09:38:40.338Z,73.70
2017-06-09T09:41:10.295Z,74.70
2017-06-09T09:43:40.083Z,75.70
2017-06-09T09:46:10.032Z,75.10
2017-06-09T09:48:39.745Z,76.40
2017-06-09T09:51:09.434Z,76.90
2017-06-09T09:53:39.143Z,76.50
2017-06-09T09:56:08.841Z,77.10
2017-06-09T09:58:38.646Z,78.50
2017-06-09T10:01:08.656Z,79.00
2017-06-09T10:03:38.353Z,80.10
2017-06-09T10:06:08.241Z,81.70
2017-06-09T10:08:40.456Z,80.60
2017-06-09T10:11:10.414Z,81.00
2017-06-09T10:13:40.131Z,81.50
2017-06-09T10:16:09.852Z,82.40
2017-06-09T10:18:44.938Z,82.40
2017-06-09T10:21:14.625Z,83.90
2017-06-09T10:23:44.602Z,86.20
2017-06-09T10:26:14.363Z,85.40
2017-06-09T10:28:44.038Z,86.50
2017-06-09T10:31:13.837Z,85.80
2017-06-09T10:33:43.532Z,86.30
2017-06-09T10:36:13.993Z,86.70
2017-06-09T10:38:43.724Z,86.90
2017-06-09T10:41:13.418Z,88.50
2017-06-09T10:43:43.182Z,87.60
2017-06-09T10:46:13.207Z,89.70
2017-06-09T10:48:42.979Z,88.50
2017-06-09T10:51:13.227Z,88.80
2017-06-09T10:53:42.963Z,90.10
2017-06-09T10:56:12.687Z,87.50
2017-06-09T10:58:42.404Z,88.50
2017-06-09T11:01:12.172Z,87.10
2017-06-09T11:03:41.857Z,88.00
2017-06-09T11:06:11.552Z,88.30
2017-06-09T11:08:41.278Z,87.90
2017-06-09T11:11:11.036Z,87.30
2017-06-09T11:13:40.856Z,88.40
2017-06-09T11:16:11.309Z,86.20
2017-06-09T11:18:41.297Z,86.70
2017-06-09T11:21:10.997Z,84.30
2017-06-09T11:23:42.424Z,83.10
2017-06-09T11:26:12.261Z,83.20
2017-06-09T11:28:42.060Z,80.20
2017-06-09T11:31:12.817Z,83.40
2017-06-09T11:33:48.165Z,81.10
2017-06-09T11:36:18.077Z,83.70
2017-06-09T11:38:49.725Z,83.50
2017-06-09T11:41:19.529Z,82.00
2017-06-09T11:43:49.803Z,82.00
2017-06-09T11:46:19.653Z,86.40
2017-06-09T11:48:49.533Z,83.20
2017-06-09T11:51:19.874Z,81.70
2017-06-09T11:53:49.597Z,83.20
2017-06-09T11:56:20.376Z,85.30
2017-06-09T11:58:50.114Z,83.70
2017-06-09T12:01:20.779Z,85.90
2017-06-09T12:03:52.466Z,86.20
2017-06-09T12:06:22.163Z,87.70
2017-06-09T12:08:51.890Z,87.50
2017-06-09T12:11:21.677Z,88.00
2017-06-09T12:13:51.477Z,89.00
2017-06-09T12:16:21.178Z,88.50
2017-06-09T12:18:50.852Z,89.20
2017-06-09T12:21:21.722Z,89.30
2017-06-09T12:23:51.458Z,89.80
2017-06-09T12:26:21.137Z,88.50
2017-06-09T12:28:55.817Z,88.40
2017-06-09T12:31:25.758Z,87.90
2017-06-09T12:33:55.473Z,81.10
2017-06-09T12:36:25.407Z,82.60
2017-06-09T12:38:55.121Z,80.90
2017-06-09T12:41:24.825Z,80.10
2017-06-09T12:43:54.524Z,73.50
2017-06-09T12:46:24.315Z,73.20
2017-06-09T12:48:55.108Z,74.10
2017-06-09T12:51:29.339Z,76.40
2017-06-09T12:54:05.137Z,74.20
2017-06-09T12:56:34.974Z,74.30
2017-06-09T12:59:05.026Z,75.30
2017-06-09T13:01:34.830Z,75.00
2017-06-09T13:04:04.598Z,77.90
2017-06-09T13:06:41.718Z,78.10
2017-06-09T13:09:36.941Z,76.00
2017-06-09T13:19:01.581Z,70.00
2017-06-09T13:24:55.317Z,65.60
2017-06-09T13:27:42.205Z,68.50
2017-06-09T13:30:24.294Z,65.90
2017-06-09T13:36:21.236Z,63.40
2017-06-09T13:39:27.633Z,61.00
2017-06-09T13:45:52.763Z,57.20
2017-06-09T21:23:35.883Z,57.60
2017-06-09T21:26:18.510Z,72.70
2017-06-09T21:32:18.739Z,72.70
2017-06-09T21:34:57.771Z,72.60
2017-06-09T21:37:29.967Z,72.90
2017-06-09T21:40:43.064Z,74.00
2017-06-09T21:43:18.301Z,73.80
2017-06-09T21:45:48.071Z,74.20
2017-06-09T21:48:17.830Z,74.90
2017-06-09T21:50:48.748Z,74.90
2017-06-09T21:53:18.556Z,75.30
2017-06-09T21:55:48.298Z,75.70
2017-06-09T21:58:21.558Z,75.90
2017-06-09T22:08:56.187Z,77.80
2017-06-09T22:14:41.984Z,76.90
2017-06-09T22:17:39.560Z,77.10
2017-06-09T22:26:10.837Z,77.80
2017-06-09T22:31:42.004Z,78.00
2017-06-09T22:40:06.544Z,78.30
2017-06-09T22:45:38.341Z,77.10
2017-06-09T22:51:01.243Z,76.40
2017-06-09T22:56:31.749Z,76.30
2017-06-09T22:59:09.449Z,76.60
2017-06-09T23:01:44.610Z,77.20
2017-06-09T23:04:18.307Z,77.90
2017-06-09T23:13:20.210Z,79.30
2017-06-09T23:18:39.506Z,77.60
2017-06-09T23:21:26.721Z,78.10
2017-06-09T23:24:42.403Z,77.10
2017-06-09T23:27:30.751Z,77.90
2017-06-09T23:31:07.339Z,78.40
2017-06-09T23:33:59.280Z,78.60
2017-06-09T23:39:19.895Z,81.60
2017-06-09T23:42:01.169Z,80.20
2017-06-09T23:44:30.932Z,80.20
2017-06-09T23:47:00.618Z,81.10
2017-06-09T23:49:30.278Z,83.20
2017-06-09T23:52:02.548Z,83.10
2017-06-09T23:54:32.387Z,83.90
2017-06-09T23:57:11.018Z,83.20
2017-06-09T23:59:43.179Z,83.20
